sensor_id;sensor_type;location;lat;lon;timestamp;P1;durP1;ratioP1;P2;durP2;ratioP2
79640;SDS011;69115;49.904;14.390;2024-02-26T00:00:09;116.63;;;29.73;;
79640;SDS011;69115;49.904;14.390;2024-02-26T00:02:36;103.32;;;32.53;;
79640;SDS011;69115;49.904;14.390;2024-02-26T00:05:04;61.47;;;28.27;;
79640;SDS011;69115;49.904;14.390;2024-02-26T00:07:31;60.60;;;28.40;;
79640;SDS011;69115;49.904;14.390;2024-02-26T00:09:56;74.15;;;27.52;;
79640;SDS011;69115;49.904;14.390;2024-02-26T00:12:22;57.90;;;27.38;;
79640;SDS011;69115;49.904;14.390;2024-02-26T00:14:47;64.82;;;27.92;;
79640;SDS011;69115;49.904;14.390;2024-02-26T00:17:14;78.15;;;30.33;;
79640;SDS011;69115;49.904;14.390;2024-02-26T00:19:40;66.28;;;28.75;;
79640;SDS011;69115;49.904;14.390;2024-02-26T00:22:06;95.53;;;27.77;;
79640;SDS011;69115;49.904;14.390;2024-02-26T00:24:31;57.00;;;25.67;;
79640;SDS011;69115;49.904;14.390;2024-02-26T00:26:56;57.90;;;27.52;;
79640;SDS011;69115;49.904;14.390;2024-02-26T00:29:22;54.85;;;24.67;;
79640;SDS011;69115;49.904;14.390;2024-02-26T00:31:48;87.13;;;26.70;;
79640;SDS011;69115;49.904;14.390;2024-02-26T00:34:13;58.70;;;26.27;;
79640;SDS011;69115;49.904;14.390;2024-02-26T00:36:39;59.70;;;26.42;;
79640;SDS011;69115;49.904;14.390;2024-02-26T00:39:04;56.40;;;26.17;;
79640;SDS011;69115;49.904;14.390;2024-02-26T00:41:29;61.15;;;26.83;;
79640;SDS011;69115;49.904;14.390;2024-02-26T00:43:55;53.90;;;24.50;;
79640;SDS011;69115;49.904;14.390;2024-02-26T00:46:20;58.97;;;26.65;;
79640;SDS011;69115;49.904;14.390;2024-02-26T00:48:46;55.58;;;24.08;;
79640;SDS011;69115;49.904;14.390;2024-02-26T00:51:11;57.75;;;25.80;;
79640;SDS011;69115;49.904;14.390;2024-02-26T00:53:36;83.50;;;25.48;;
79640;SDS011;69115;49.904;14.390;2024-02-26T00:56:02;60.50;;;24.73;;
79640;SDS011;69115;49.904;14.390;2024-02-26T00:58:27;65.95;;;24.02;;
79640;SDS011;69115;49.904;14.390;2024-02-26T01:00:52;54.53;;;24.33;;
79640;SDS011;69115;49.904;14.390;2024-02-26T01:03:18;52.10;;;24.35;;
79640;SDS011;69115;49.904;14.390;2024-02-26T01:05:44;50.55;;;23.77;;
79640;SDS011;69115;49.904;14.390;2024-02-26T01:08:10;51.50;;;22.83;;
79640;SDS011;69115;49.904;14.390;2024-02-26T01:10:35;53.83;;;25.40;;
79640;SDS011;69115;49.904;14.390;2024-02-26T01:13:01;56.63;;;24.45;;
79640;SDS011;69115;49.904;14.390;2024-02-26T01:15:26;65.95;;;26.27;;
79640;SDS011;69115;49.904;14.390;2024-02-26T01:17:52;73.15;;;24.27;;
79640;SDS011;69115;49.904;14.390;2024-02-26T01:20:18;56.45;;;24.75;;
79640;SDS011;69115;49.904;14.390;2024-02-26T01:22:43;49.38;;;23.95;;
79640;SDS011;69115;49.904;14.390;2024-02-26T01:25:09;84.38;;;25.98;;
79640;SDS011;69115;49.904;14.390;2024-02-26T01:27:35;79.50;;;23.33;;
79640;SDS011;69115;49.904;14.390;2024-02-26T01:30:04;64.80;;;23.90;;
79640;SDS011;69115;49.904;14.390;2024-02-26T01:32:30;56.67;;;24.15;;
79640;SDS011;69115;49.904;14.390;2024-02-26T01:34:56;58.65;;;23.45;;
79640;SDS011;69115;49.904;14.390;2024-02-26T01:37:21;54.65;;;22.65;;
79640;SDS011;69115;49.904;14.390;2024-02-26T01:39:47;53.53;;;23.00;;
79640;SDS011;69115;49.904;14.390;2024-02-26T01:42:12;60.47;;;24.67;;
79640;SDS011;69115;49.904;14.390;2024-02-26T01:44:37;55.13;;;25.17;;
79640;SDS011;69115;49.904;14.390;2024-02-26T01:47:03;51.85;;;23.83;;
79640;SDS011;69115;49.904;14.390;2024-02-26T01:49:29;58.22;;;24.60;;
79640;SDS011;69115;49.904;14.390;2024-02-26T01:51:55;65.47;;;24.27;;
79640;SDS011;69115;49.904;14.390;2024-02-26T01:54:21;45.75;;;21.50;;
79640;SDS011;69115;49.904;14.390;2024-02-26T01:56:46;66.35;;;22.95;;
79640;SDS011;69115;49.904;14.390;2024-02-26T01:59:12;51.15;;;22.63;;
79640;SDS011;69115;49.904;14.390;2024-02-26T02:01:37;48.88;;;22.80;;
79640;SDS011;69115;49.904;14.390;2024-02-26T02:04:05;55.75;;;23.17;;
79640;SDS011;69115;49.904;14.390;2024-02-26T02:06:31;49.87;;;23.33;;
79640;SDS011;69115;49.904;14.390;2024-02-26T02:08:56;47.08;;;22.58;;
79640;SDS011;69115;49.904;14.390;2024-02-26T02:11:21;52.67;;;22.52;;
79640;SDS011;69115;49.904;14.390;2024-02-26T02:13:47;49.67;;;24.48;;
79640;SDS011;69115;49.904;14.390;2024-02-26T02:16:12;58.20;;;22.83;;
79640;SDS011;69115;49.904;14.390;2024-02-26T02:18:38;54.92;;;24.02;;
79640;SDS011;69115;49.904;14.390;2024-02-26T02:21:03;57.30;;;23.98;;
79640;SDS011;69115;49.904;14.390;2024-02-26T02:23:29;56.65;;;22.33;;
79640;SDS011;69115;49.904;14.390;2024-02-26T02:25:54;53.97;;;22.88;;
79640;SDS011;69115;49.904;14.390;2024-02-26T02:28:21;54.08;;;23.10;;
79640;SDS011;69115;49.904;14.390;2024-02-26T02:30:47;57.83;;;24.25;;
79640;SDS011;69115;49.904;14.390;2024-02-26T02:33:13;53.67;;;24.60;;
79640;SDS011;69115;49.904;14.390;2024-02-26T02:35:40;57.67;;;24.20;;
79640;SDS011;69115;49.904;14.390;2024-02-26T02:38:05;63.10;;;24.02;;
79640;SDS011;69115;49.904;14.390;2024-02-26T02:40:31;54.60;;;23.38;;
79640;SDS011;69115;49.904;14.390;2024-02-26T02:42:56;70.60;;;23.70;;
79640;SDS011;69115;49.904;14.390;2024-02-26T02:45:22;56.28;;;23.77;;
79640;SDS011;69115;49.904;14.390;2024-02-26T02:47:47;54.43;;;22.40;;
79640;SDS011;69115;49.904;14.390;2024-02-26T02:50:12;57.92;;;23.25;;
79640;SDS011;69115;49.904;14.390;2024-02-26T02:52:38;56.92;;;22.75;;
79640;SDS011;69115;49.904;14.390;2024-02-26T02:55:03;47.42;;;20.15;;
79640;SDS011;69115;49.904;14.390;2024-02-26T02:57:29;61.42;;;20.92;;
79640;SDS011;69115;49.904;14.390;2024-02-26T02:59:55;57.92;;;20.00;;
79640;SDS011;69115;49.904;14.390;2024-02-26T03:02:20;48.10;;;19.83;;
79640;SDS011;69115;49.904;14.390;2024-02-26T03:04:45;51.05;;;21.00;;
79640;SDS011;69115;49.904;14.390;2024-02-26T03:07:11;72.20;;;21.30;;
79640;SDS011;69115;49.904;14.390;2024-02-26T03:09:36;87.60;;;21.33;;
79640;SDS011;69115;49.904;14.390;2024-02-26T03:12:02;113.30;;;20.30;;
79640;SDS011;69115;49.904;14.390;2024-02-26T03:14:27;64.07;;;21.38;;
79640;SDS011;69115;49.904;14.390;2024-02-26T03:16:53;42.65;;;19.30;;
79640;SDS011;69115;49.904;14.390;2024-02-26T03:19:19;93.18;;;19.80;;
79640;SDS011;69115;49.904;14.390;2024-02-26T03:21:45;46.53;;;19.48;;
79640;SDS011;69115;49.904;14.390;2024-02-26T03:24:10;156.98;;;20.70;;
79640;SDS011;69115;49.904;14.390;2024-02-26T03:26:37;58.83;;;19.23;;
79640;SDS011;69115;49.904;14.390;2024-02-26T03:29:02;41.50;;;17.83;;
79640;SDS011;69115;49.904;14.390;2024-02-26T03:31:28;44.53;;;18.73;;
79640;SDS011;69115;49.904;14.390;2024-02-26T03:33:53;44.72;;;18.83;;
79640;SDS011;69115;49.904;14.390;2024-02-26T03:36:18;54.47;;;18.45;;
79640;SDS011;69115;49.904;14.390;2024-02-26T03:38:44;52.72;;;19.15;;
79640;SDS011;69115;49.904;14.390;2024-02-26T03:41:09;48.33;;;17.20;;
79640;SDS011;69115;49.904;14.390;2024-02-26T03:43:35;41.85;;;18.08;;
79640;SDS011;69115;49.904;14.390;2024-02-26T03:46:00;64.95;;;19.67;;
79640;SDS011;69115;49.904;14.390;2024-02-26T03:48:25;42.95;;;19.42;;
79640;SDS011;69115;49.904;14.390;2024-02-26T03:50:51;43.73;;;20.70;;
79640;SDS011;69115;49.904;14.390;2024-02-26T03:53:16;51.47;;;21.83;;
79640;SDS011;69115;49.904;14.390;2024-02-26T03:55:41;46.30;;;19.85;;
79640;SDS011;69115;49.904;14.390;2024-02-26T03:58:07;51.58;;;19.75;;
79640;SDS011;69115;49.904;14.390;2024-02-26T04:00:33;48.38;;;20.67;;
79640;SDS011;69115;49.904;14.390;2024-02-26T04:02:58;62.47;;;19.70;;
79640;SDS011;69115;49.904;14.390;2024-02-26T04:05:23;50.03;;;20.60;;
79640;SDS011;69115;49.904;14.390;2024-02-26T04:07:49;49.73;;;19.33;;
79640;SDS011;69115;49.904;14.390;2024-02-26T04:10:14;45.50;;;20.70;;
79640;SDS011;69115;49.904;14.390;2024-02-26T04:12:40;48.42;;;20.63;;
79640;SDS011;69115;49.904;14.390;2024-02-26T04:15:09;48.20;;;19.13;;
79640;SDS011;69115;49.904;14.390;2024-02-26T04:17:35;47.92;;;21.15;;
79640;SDS011;69115;49.904;14.390;2024-02-26T04:20:01;82.65;;;20.40;;
79640;SDS011;69115;49.904;14.390;2024-02-26T04:22:27;59.40;;;21.40;;
79640;SDS011;69115;49.904;14.390;2024-02-26T04:24:52;44.42;;;19.27;;
79640;SDS011;69115;49.904;14.390;2024-02-26T04:27:17;48.60;;;20.93;;
79640;SDS011;69115;49.904;14.390;2024-02-26T04:29:43;47.88;;;20.02;;
79640;SDS011;69115;49.904;14.390;2024-02-26T04:32:08;38.85;;;18.60;;
79640;SDS011;69115;49.904;14.390;2024-02-26T04:34:33;62.00;;;20.02;;
79640;SDS011;69115;49.904;14.390;2024-02-26T04:36:59;62.63;;;19.38;;
79640;SDS011;69115;49.904;14.390;2024-02-26T04:39:24;52.50;;;20.23;;
79640;SDS011;69115;49.904;14.390;2024-02-26T04:41:49;59.43;;;20.30;;
79640;SDS011;69115;49.904;14.390;2024-02-26T04:44:15;88.73;;;21.43;;
79640;SDS011;69115;49.904;14.390;2024-02-26T04:46:40;48.83;;;19.88;;
79640;SDS011;69115;49.904;14.390;2024-02-26T04:49:06;40.50;;;18.00;;
79640;SDS011;69115;49.904;14.390;2024-02-26T04:51:31;64.80;;;20.30;;
79640;SDS011;69115;49.904;14.390;2024-02-26T04:53:56;37.27;;;17.87;;
79640;SDS011;69115;49.904;14.390;2024-02-26T04:56:22;37.42;;;18.00;;
79640;SDS011;69115;49.904;14.390;2024-02-26T04:58:47;46.90;;;18.08;;
79640;SDS011;69115;49.904;14.390;2024-02-26T05:01:13;68.20;;;19.20;;
79640;SDS011;69115;49.904;14.390;2024-02-26T05:03:38;39.42;;;18.05;;
79640;SDS011;69115;49.904;14.390;2024-02-26T05:06:04;62.58;;;18.33;;
79640;SDS011;69115;49.904;14.390;2024-02-26T05:08:30;38.80;;;17.73;;
79640;SDS011;69115;49.904;14.390;2024-02-26T05:10:56;38.40;;;17.08;;
79640;SDS011;69115;49.904;14.390;2024-02-26T05:13:21;40.50;;;18.45;;
79640;SDS011;69115;49.904;14.390;2024-02-26T05:15:47;39.75;;;17.90;;
79640;SDS011;69115;49.904;14.390;2024-02-26T05:18:14;43.83;;;16.50;;
79640;SDS011;69115;49.904;14.390;2024-02-26T05:20:40;38.95;;;16.40;;
79640;SDS011;69115;49.904;14.390;2024-02-26T05:23:05;35.70;;;16.50;;
79640;SDS011;69115;49.904;14.390;2024-02-26T05:25:31;38.50;;;16.47;;
79640;SDS011;69115;49.904;14.390;2024-02-26T05:27:56;49.28;;;16.42;;
79640;SDS011;69115;49.904;14.390;2024-02-26T05:30:21;33.97;;;15.95;;
79640;SDS011;69115;49.904;14.390;2024-02-26T05:32:47;37.47;;;17.15;;
79640;SDS011;69115;49.904;14.390;2024-02-26T05:35:12;40.90;;;17.03;;
79640;SDS011;69115;49.904;14.390;2024-02-26T05:37:38;44.72;;;18.65;;
79640;SDS011;69115;49.904;14.390;2024-02-26T05:40:03;36.03;;;16.17;;
79640;SDS011;69115;49.904;14.390;2024-02-26T05:42:30;40.80;;;17.08;;
79640;SDS011;69115;49.904;14.390;2024-02-26T05:44:56;38.30;;;17.05;;
79640;SDS011;69115;49.904;14.390;2024-02-26T05:47:21;42.10;;;16.63;;
79640;SDS011;69115;49.904;14.390;2024-02-26T05:49:47;39.28;;;16.25;;
79640;SDS011;69115;49.904;14.390;2024-02-26T05:52:13;36.38;;;17.58;;
79640;SDS011;69115;49.904;14.390;2024-02-26T05:54:39;42.47;;;17.23;;
79640;SDS011;69115;49.904;14.390;2024-02-26T05:57:04;46.35;;;18.27;;
79640;SDS011;69115;49.904;14.390;2024-02-26T05:59:29;33.67;;;16.63;;
79640;SDS011;69115;49.904;14.390;2024-02-26T06:01:55;37.90;;;16.83;;
79640;SDS011;69115;49.904;14.390;2024-02-26T06:04:20;38.93;;;16.30;;
79640;SDS011;69115;49.904;14.390;2024-02-26T06:06:45;46.38;;;18.60;;
79640;SDS011;69115;49.904;14.390;2024-02-26T06:09:11;38.35;;;17.65;;
79640;SDS011;69115;49.904;14.390;2024-02-26T06:11:36;38.78;;;16.30;;
79640;SDS011;69115;49.904;14.390;2024-02-26T06:14:02;45.28;;;17.45;;
79640;SDS011;69115;49.904;14.390;2024-02-26T06:16:27;39.63;;;17.10;;
79640;SDS011;69115;49.904;14.390;2024-02-26T06:18:53;45.25;;;17.88;;
79640;SDS011;69115;49.904;14.390;2024-02-26T06:21:18;36.60;;;17.63;;
79640;SDS011;69115;49.904;14.390;2024-02-26T06:23:43;38.77;;;16.63;;
79640;SDS011;69115;49.904;14.390;2024-02-26T06:26:09;39.05;;;17.77;;
79640;SDS011;69115;49.904;14.390;2024-02-26T06:28:35;39.95;;;17.40;;
79640;SDS011;69115;49.904;14.390;2024-02-26T06:31:01;41.75;;;17.73;;
79640;SDS011;69115;49.904;14.390;2024-02-26T06:33:26;38.80;;;17.30;;
79640;SDS011;69115;49.904;14.390;2024-02-26T06:35:52;44.22;;;16.10;;
79640;SDS011;69115;49.904;14.390;2024-02-26T06:38:17;35.35;;;15.45;;
79640;SDS011;69115;49.904;14.390;2024-02-26T06:40:44;43.88;;;17.02;;
79640;SDS011;69115;49.904;14.390;2024-02-26T06:43:09;58.08;;;17.38;;
79640;SDS011;69115;49.904;14.390;2024-02-26T06:45:34;38.92;;;17.00;;
79640;SDS011;69115;49.904;14.390;2024-02-26T06:48:00;52.35;;;17.80;;
79640;SDS011;69115;49.904;14.390;2024-02-26T06:50:25;50.72;;;16.73;;
79640;SDS011;69115;49.904;14.390;2024-02-26T06:52:51;44.15;;;17.38;;
79640;SDS011;69115;49.904;14.390;2024-02-26T06:55:16;32.65;;;15.25;;
79640;SDS011;69115;49.904;14.390;2024-02-26T06:57:42;33.78;;;15.55;;
79640;SDS011;69115;49.904;14.390;2024-02-26T07:00:07;40.65;;;17.35;;
79640;SDS011;69115;49.904;14.390;2024-02-26T07:02:33;36.10;;;16.33;;
79640;SDS011;69115;49.904;14.390;2024-02-26T07:04:59;40.00;;;17.60;;
79640;SDS011;69115;49.904;14.390;2024-02-26T07:07:24;38.33;;;17.00;;
79640;SDS011;69115;49.904;14.390;2024-02-26T07:09:50;40.00;;;17.92;;
79640;SDS011;69115;49.904;14.390;2024-02-26T07:12:15;37.83;;;17.25;;
79640;SDS011;69115;49.904;14.390;2024-02-26T07:14:41;38.08;;;17.15;;
79640;SDS011;69115;49.904;14.390;2024-02-26T07:17:06;37.50;;;17.48;;
79640;SDS011;69115;49.904;14.390;2024-02-26T07:19:33;37.05;;;17.23;;
79640;SDS011;69115;49.904;14.390;2024-02-26T07:21:58;44.22;;;18.40;;
79640;SDS011;69115;49.904;14.390;2024-02-26T07:24:26;45.08;;;18.63;;
79640;SDS011;69115;49.904;14.390;2024-02-26T07:26:51;37.20;;;17.25;;
79640;SDS011;69115;49.904;14.390;2024-02-26T07:29:19;39.13;;;18.67;;
79640;SDS011;69115;49.904;14.390;2024-02-26T07:31:44;47.15;;;16.58;;
79640;SDS011;69115;49.904;14.390;2024-02-26T07:34:12;41.67;;;17.98;;
79640;SDS011;69115;49.904;14.390;2024-02-26T07:36:38;42.22;;;18.40;;
79640;SDS011;69115;49.904;14.390;2024-02-26T07:39:03;52.25;;;20.65;;
79640;SDS011;69115;49.904;14.390;2024-02-26T07:41:29;47.58;;;20.52;;
79640;SDS011;69115;49.904;14.390;2024-02-26T07:43:54;45.60;;;18.92;;
79640;SDS011;69115;49.904;14.390;2024-02-26T07:46:19;49.10;;;18.65;;
79640;SDS011;69115;49.904;14.390;2024-02-26T07:48:45;48.22;;;19.50;;
79640;SDS011;69115;49.904;14.390;2024-02-26T07:51:12;44.10;;;18.75;;
79640;SDS011;69115;49.904;14.390;2024-02-26T07:53:39;50.75;;;20.58;;
79640;SDS011;69115;49.904;14.390;2024-02-26T07:56:04;48.67;;;19.80;;
79640;SDS011;69115;49.904;14.390;2024-02-26T07:58:29;44.20;;;19.20;;
79640;SDS011;69115;49.904;14.390;2024-02-26T08:00:55;45.22;;;19.33;;
79640;SDS011;69115;49.904;14.390;2024-02-26T08:03:20;41.53;;;19.73;;
79640;SDS011;69115;49.904;14.390;2024-02-26T08:05:46;47.47;;;20.93;;
79640;SDS011;69115;49.904;14.390;2024-02-26T08:08:11;50.90;;;20.77;;
79640;SDS011;69115;49.904;14.390;2024-02-26T08:10:37;56.30;;;19.27;;
79640;SDS011;69115;49.904;14.390;2024-02-26T08:13:02;43.85;;;18.38;;
79640;SDS011;69115;49.904;14.390;2024-02-26T08:15:31;47.65;;;19.60;;
79640;SDS011;69115;49.904;14.390;2024-02-26T08:17:57;42.80;;;18.65;;
79640;SDS011;69115;49.904;14.390;2024-02-26T08:20:23;42.95;;;19.42;;
79640;SDS011;69115;49.904;14.390;2024-02-26T08:22:48;47.38;;;19.83;;
79640;SDS011;69115;49.904;14.390;2024-02-26T08:25:13;48.10;;;19.53;;
79640;SDS011;69115;49.904;14.390;2024-02-26T08:27:41;48.58;;;19.98;;
79640;SDS011;69115;49.904;14.390;2024-02-26T08:30:06;49.00;;;19.55;;
79640;SDS011;69115;49.904;14.390;2024-02-26T08:32:32;52.60;;;21.10;;
79640;SDS011;69115;49.904;14.390;2024-02-26T08:34:57;51.73;;;21.20;;
79640;SDS011;69115;49.904;14.390;2024-02-26T08:37:23;46.90;;;21.20;;
79640;SDS011;69115;49.904;14.390;2024-02-26T08:39:48;47.15;;;20.98;;
79640;SDS011;69115;49.904;14.390;2024-02-26T08:42:14;48.13;;;19.92;;
79640;SDS011;69115;49.904;14.390;2024-02-26T08:44:39;44.67;;;20.57;;
79640;SDS011;69115;49.904;14.390;2024-02-26T08:47:04;52.63;;;22.13;;
79640;SDS011;69115;49.904;14.390;2024-02-26T08:49:30;48.13;;;20.63;;
79640;SDS011;69115;49.904;14.390;2024-02-26T08:51:56;59.45;;;25.60;;
79640;SDS011;69115;49.904;14.390;2024-02-26T08:54:22;49.28;;;21.35;;
79640;SDS011;69115;49.904;14.390;2024-02-26T08:56:49;49.45;;;21.80;;
79640;SDS011;69115;49.904;14.390;2024-02-26T08:59:14;47.72;;;22.38;;
79640;SDS011;69115;49.904;14.390;2024-02-26T09:01:41;56.58;;;20.77;;
79640;SDS011;69115;49.904;14.390;2024-02-26T09:04:06;49.63;;;20.33;;
79640;SDS011;69115;49.904;14.390;2024-02-26T09:06:32;48.05;;;20.83;;
79640;SDS011;69115;49.904;14.390;2024-02-26T09:08:57;50.97;;;20.25;;
79640;SDS011;69115;49.904;14.390;2024-02-26T09:11:22;43.10;;;18.10;;
79640;SDS011;69115;49.904;14.390;2024-02-26T09:13:48;41.60;;;18.70;;
79640;SDS011;69115;49.904;14.390;2024-02-26T09:16:13;45.70;;;19.05;;
79640;SDS011;69115;49.904;14.390;2024-02-26T09:18:39;45.88;;;20.20;;
79640;SDS011;69115;49.904;14.390;2024-02-26T09:21:04;42.53;;;20.15;;
79640;SDS011;69115;49.904;14.390;2024-02-26T09:23:31;44.25;;;18.23;;
79640;SDS011;69115;49.904;14.390;2024-02-26T09:25:56;46.33;;;19.60;;
79640;SDS011;69115;49.904;14.390;2024-02-26T09:28:22;51.88;;;20.90;;
79640;SDS011;69115;49.904;14.390;2024-02-26T09:30:48;46.65;;;20.77;;
79640;SDS011;69115;49.904;14.390;2024-02-26T09:33:14;49.03;;;22.38;;
79640;SDS011;69115;49.904;14.390;2024-02-26T09:35:39;46.83;;;21.60;;
79640;SDS011;69115;49.904;14.390;2024-02-26T09:38:05;50.80;;;21.60;;
79640;SDS011;69115;49.904;14.390;2024-02-26T09:40:30;49.70;;;20.25;;
79640;SDS011;69115;49.904;14.390;2024-02-26T09:42:58;47.25;;;19.45;;
79640;SDS011;69115;49.904;14.390;2024-02-26T09:45:25;48.53;;;21.33;;
79640;SDS011;69115;49.904;14.390;2024-02-26T09:47:52;45.67;;;20.25;;
79640;SDS011;69115;49.904;14.390;2024-02-26T09:50:20;46.05;;;20.92;;
79640;SDS011;69115;49.904;14.390;2024-02-26T09:52:49;51.28;;;20.80;;
79640;SDS011;69115;49.904;14.390;2024-02-26T09:55:15;51.90;;;21.55;;
79640;SDS011;69115;49.904;14.390;2024-02-26T09:57:45;51.90;;;22.02;;
79640;SDS011;69115;49.904;14.390;2024-02-26T10:00:20;49.95;;;21.80;;
79640;SDS011;69115;49.904;14.390;2024-02-26T10:02:46;61.58;;;24.98;;
79640;SDS011;69115;49.904;14.390;2024-02-26T10:05:18;53.20;;;23.27;;
79640;SDS011;69115;49.904;14.390;2024-02-26T10:07:47;60.60;;;24.95;;
79640;SDS011;69115;49.904;14.390;2024-02-26T10:10:17;58.25;;;24.33;;
79640;SDS011;69115;49.904;14.390;2024-02-26T10:12:42;61.08;;;25.08;;
79640;SDS011;69115;49.904;14.390;2024-02-26T10:15:08;52.22;;;22.38;;
79640;SDS011;69115;49.904;14.390;2024-02-26T10:17:34;61.83;;;24.98;;
79640;SDS011;69115;49.904;14.390;2024-02-26T10:20:12;55.88;;;22.98;;
79640;SDS011;69115;49.904;14.390;2024-02-26T10:22:42;59.75;;;23.70;;
79640;SDS011;69115;49.904;14.390;2024-02-26T10:25:08;48.13;;;22.08;;
79640;SDS011;69115;49.904;14.390;2024-02-26T10:27:34;53.15;;;22.30;;
79640;SDS011;69115;49.904;14.390;2024-02-26T10:30:03;51.55;;;21.77;;
79640;SDS011;69115;49.904;14.390;2024-02-26T10:32:30;55.65;;;23.15;;
79640;SDS011;69115;49.904;14.390;2024-02-26T10:34:56;58.05;;;22.77;;
79640;SDS011;69115;49.904;14.390;2024-02-26T10:37:22;52.00;;;21.60;;
79640;SDS011;69115;49.904;14.390;2024-02-26T10:39:50;38.25;;;17.73;;
79640;SDS011;69115;49.904;14.390;2024-02-26T10:42:15;33.83;;;14.65;;
79640;SDS011;69115;49.904;14.390;2024-02-26T10:44:43;30.33;;;14.52;;
79640;SDS011;69115;49.904;14.390;2024-02-26T10:47:10;32.92;;;15.82;;
79640;SDS011;69115;49.904;14.390;2024-02-26T10:49:35;28.20;;;14.68;;
79640;SDS011;69115;49.904;14.390;2024-02-26T10:52:00;24.00;;;12.65;;
79640;SDS011;69115;49.904;14.390;2024-02-26T10:54:27;28.98;;;14.13;;
79640;SDS011;69115;49.904;14.390;2024-02-26T10:56:55;26.23;;;13.63;;
79640;SDS011;69115;49.904;14.390;2024-02-26T10:59:21;31.15;;;14.35;;
79640;SDS011;69115;49.904;14.390;2024-02-26T11:01:50;31.85;;;14.73;;
79640;SDS011;69115;49.904;14.390;2024-02-26T11:04:15;30.17;;;14.50;;
79640;SDS011;69115;49.904;14.390;2024-02-26T11:06:42;27.48;;;13.98;;
79640;SDS011;69115;49.904;14.390;2024-02-26T11:09:08;26.70;;;13.95;;
79640;SDS011;69115;49.904;14.390;2024-02-26T11:11:38;27.20;;;12.90;;
79640;SDS011;69115;49.904;14.390;2024-02-26T11:14:05;30.05;;;12.77;;
79640;SDS011;69115;49.904;14.390;2024-02-26T11:16:31;25.13;;;13.07;;
79640;SDS011;69115;49.904;14.390;2024-02-26T11:18:59;29.25;;;14.10;;
79640;SDS011;69115;49.904;14.390;2024-02-26T11:21:25;25.42;;;14.18;;
79640;SDS011;69115;49.904;14.390;2024-02-26T11:24:04;26.50;;;12.65;;
79640;SDS011;69115;49.904;14.390;2024-02-26T11:26:31;21.15;;;11.80;;
79640;SDS011;69115;49.904;14.390;2024-02-26T11:28:59;25.67;;;12.77;;
79640;SDS011;69115;49.904;14.390;2024-02-26T11:31:25;25.50;;;13.18;;
79640;SDS011;69115;49.904;14.390;2024-02-26T11:33:53;23.40;;;12.15;;
79640;SDS011;69115;49.904;14.390;2024-02-26T11:36:19;20.90;;;11.35;;
79640;SDS011;69115;49.904;14.390;2024-02-26T11:38:44;22.17;;;12.13;;
79640;SDS011;69115;49.904;14.390;2024-02-26T11:41:13;24.90;;;11.60;;
79640;SDS011;69115;49.904;14.390;2024-02-26T11:43:53;23.67;;;11.63;;
79640;SDS011;69115;49.904;14.390;2024-02-26T11:46:29;23.20;;;11.55;;
79640;SDS011;69115;49.904;14.390;2024-02-26T11:48:59;23.25;;;12.55;;
79640;SDS011;69115;49.904;14.390;2024-02-26T11:51:32;20.45;;;11.13;;
79640;SDS011;69115;49.904;14.390;2024-02-26T11:53:59;23.10;;;11.48;;
79640;SDS011;69115;49.904;14.390;2024-02-26T11:56:24;24.25;;;11.57;;
79640;SDS011;69115;49.904;14.390;2024-02-26T11:59:01;21.83;;;11.95;;
79640;SDS011;69115;49.904;14.390;2024-02-26T12:01:41;20.15;;;11.93;;
79640;SDS011;69115;49.904;14.390;2024-02-26T12:04:21;21.88;;;10.98;;
79640;SDS011;69115;49.904;14.390;2024-02-26T12:06:50;26.42;;;13.32;;
79640;SDS011;69115;49.904;14.390;2024-02-26T12:09:32;22.83;;;12.00;;
79640;SDS011;69115;49.904;14.390;2024-02-26T12:11:57;22.10;;;11.82;;
79640;SDS011;69115;49.904;14.390;2024-02-26T12:14:26;22.67;;;11.93;;
79640;SDS011;69115;49.904;14.390;2024-02-26T12:16:52;23.58;;;13.23;;
79640;SDS011;69115;49.904;14.390;2024-02-26T12:19:18;20.83;;;11.60;;
79640;SDS011;69115;49.904;14.390;2024-02-26T12:21:43;22.42;;;11.68;;
79640;SDS011;69115;49.904;14.390;2024-02-26T12:24:13;23.00;;;11.32;;
79640;SDS011;69115;49.904;14.390;2024-02-26T12:26:41;20.40;;;12.05;;
79640;SDS011;69115;49.904;14.390;2024-02-26T12:29:07;20.23;;;10.98;;
79640;SDS011;69115;49.904;14.390;2024-02-26T12:31:33;26.85;;;13.38;;
79640;SDS011;69115;49.904;14.390;2024-02-26T12:34:01;25.45;;;12.60;;
79640;SDS011;69115;49.904;14.390;2024-02-26T12:36:27;24.10;;;13.18;;
79640;SDS011;69115;49.904;14.390;2024-02-26T12:38:53;24.75;;;13.77;;
79640;SDS011;69115;49.904;14.390;2024-02-26T12:41:18;24.40;;;13.05;;
79640;SDS011;69115;49.904;14.390;2024-02-26T12:43:43;23.10;;;12.90;;
79640;SDS011;69115;49.904;14.390;2024-02-26T12:46:09;22.48;;;12.10;;
79640;SDS011;69115;49.904;14.390;2024-02-26T12:48:37;21.63;;;12.32;;
79640;SDS011;69115;49.904;14.390;2024-02-26T12:51:04;20.90;;;12.73;;
79640;SDS011;69115;49.904;14.390;2024-02-26T12:53:30;21.27;;;12.00;;
79640;SDS011;69115;49.904;14.390;2024-02-26T12:55:55;20.95;;;11.68;;
79640;SDS011;69115;49.904;14.390;2024-02-26T12:58:21;21.52;;;11.50;;
79640;SDS011;69115;49.904;14.390;2024-02-26T13:00:50;22.35;;;11.68;;
79640;SDS011;69115;49.904;14.390;2024-02-26T13:03:16;21.35;;;12.30;;
79640;SDS011;69115;49.904;14.390;2024-02-26T13:05:41;23.45;;;12.75;;
79640;SDS011;69115;49.904;14.390;2024-02-26T13:08:07;28.52;;;12.27;;
79640;SDS011;69115;49.904;14.390;2024-02-26T13:10:34;23.40;;;12.32;;
79640;SDS011;69115;49.904;14.390;2024-02-26T13:13:01;23.02;;;12.63;;
79640;SDS011;69115;49.904;14.390;2024-02-26T13:15:27;22.35;;;12.95;;
79640;SDS011;69115;49.904;14.390;2024-02-26T13:17:53;22.33;;;12.50;;
79640;SDS011;69115;49.904;14.390;2024-02-26T13:20:28;22.13;;;12.05;;
79640;SDS011;69115;49.904;14.390;2024-02-26T13:23:01;22.92;;;12.82;;
79640;SDS011;69115;49.904;14.390;2024-02-26T13:25:27;21.38;;;12.43;;
79640;SDS011;69115;49.904;14.390;2024-02-26T13:27:53;23.40;;;12.00;;
79640;SDS011;69115;49.904;14.390;2024-02-26T13:30:18;21.88;;;11.82;;
79640;SDS011;69115;49.904;14.390;2024-02-26T13:32:44;24.40;;;12.95;;
79640;SDS011;69115;49.904;14.390;2024-02-26T13:35:12;23.02;;;12.95;;
79640;SDS011;69115;49.904;14.390;2024-02-26T13:37:38;23.70;;;11.60;;
79640;SDS011;69115;49.904;14.390;2024-02-26T13:40:07;19.63;;;11.85;;
79640;SDS011;69115;49.904;14.390;2024-02-26T13:42:34;19.33;;;11.63;;
79640;SDS011;69115;49.904;14.390;2024-02-26T13:44:59;24.50;;;12.90;;
79640;SDS011;69115;49.904;14.390;2024-02-26T13:47:25;25.40;;;13.23;;
79640;SDS011;69115;49.904;14.390;2024-02-26T13:49:50;22.17;;;12.23;;
79640;SDS011;69115;49.904;14.390;2024-02-26T13:52:16;23.17;;;12.43;;
79640;SDS011;69115;49.904;14.390;2024-02-26T13:54:41;25.23;;;12.82;;
79640;SDS011;69115;49.904;14.390;2024-02-26T13:57:07;20.70;;;11.90;;
79640;SDS011;69115;49.904;14.390;2024-02-26T13:59:33;22.38;;;11.70;;
79640;SDS011;69115;49.904;14.390;2024-02-26T14:01:59;22.23;;;12.80;;